Allerte
Precipitazioni in corso 

Nessun fenomeno

Allerta Gelo (░C)  

Nessuna

Allerta Vento (km/h)  

Nessuna

Scarsa VisibilitÓ (m) 

Monte Pagane
900

Allerta Caldo (░C)  

Nessuna

Allerta Afa (░C-UR)  

Nessuna

Dati e Grafici Climatici 3-7 gg
L'OMTeA propone un elaborazione dei più importanti parametri meteorologici rilevati dalle stazioni che hanno aderito al progetto di monitoraggio. In questa sezione è possibile consultare i dati provenienti dalle centraline, interpretati attraverso output testuale e grafico.
Se vuoi aderire alla rete OMTeA vai alla pagina Info e leggi requisiti e vantaggi.

Stazione di Cefal¨ - www.meteocefalu.altervista.org

Valori rilevati il 18/08/2018 alle ore 01:39

Temperatura atmosferica: 23.3 °C
Pressione atmosferica: 1011.5 mbar
Umidità relativa: 74 %
Intensità e direzione vento: 2.9 Km/h da ESE

Altitudine: 20 metri s.l.m.
Latitudine: 38.02° N
Longitudine: 14.01° E



Entra nella rete OMTeA!. Potrai liberamente usare sul tuo sito questi grafici; info alla pagina Istruzioni.

Ultime 50 rilevazioni
Orario Temp
°C
Rugiada
°C
Prec.
mm
Press.
mbar
Umidità
%
Int. vento
km/h
Dir.
vento
01:39 - 18/08 23.3 18.4 0 1011.50 74 2.9 ESE
01:29 - 18/08 23.3 18.0 0 1011.40 72 3.1 SSE
01:14 - 18/08 23.4 18.1 0 1011.40 72 3.1 S
00:59 - 18/08 23.6 18.2 0 1011.30 72 0 --
00:44 - 18/08 23.9 18.3 0 1011.40 71 1.9 S
00:29 - 18/08 23.9 18.3 0 1011.50 71 3.3 SSE
00:14 - 18/08 24.1 18.5 0 1011.60 71 0 --
23:59 - 17/08 24.1 18.5 0 1011.90 71 1.4 S
23:44 - 17/08 24.3 18.7 0 1011.60 71 0 --
23:29 - 17/08 24.1 18.7 0 1011.60 72 2.3 SSE
23:14 - 17/08 23.9 18.5 0 1011.60 72 0 --
22:59 - 17/08 24.1 18.9 0 1011.90 73 3.1 S
22:44 - 17/08 23.9 18.8 0 1011.70 73 2.9 ESE
22:29 - 17/08 24.1 19.2 0 1011.90 74 1.9 SE
22:14 - 17/08 24.1 19.4 0 1012.20 75 2.7 S
21:59 - 17/08 24.3 19.4 0 1012.20 74 3.5 S
21:44 - 17/08 24.5 19.6 0 1012.10 74 4.1 SSE
21:29 - 17/08 24.6 19.6 0 1012.10 74 1.0 S
21:14 - 17/08 24.7 19.7 0 1012.10 74 0.8 SE
20:59 - 17/08 24.9 19.7 0 1011.90 73 3.7 SSE
20:44 - 17/08 25.3 19.7 0 1011.80 71 0 --
20:29 - 17/08 25.5 19.8 0 1011.50 71 0 --
20:14 - 17/08 25.6 19.7 0 1011.30 70 0 --
19:59 - 17/08 26.1 20.4 0 1011.30 71 0.6 NNO
19:44 - 17/08 26.3 20.6 0 1011.30 71 2.7 S
19:29 - 17/08 26.6 20.9 0 1011.10 71 3.3 ONO
19:14 - 17/08 26.9 21.0 0 1010.90 70 0.6 NE
18:59 - 17/08 27.3 21.1 0 1010.70 69 4.7 SSO
18:44 - 17/08 27.3 21.1 0 1010.70 69 0 --
18:29 - 17/08 27.2 21.0 0 1010.60 69 1.7 ENE
18:14 - 17/08 27.4 21.2 0 1010.50 69 3.5 SO
17:59 - 17/08 27.9 21.7 0 1010.40 69 1.0 NE
17:44 - 17/08 27.6 21.4 0 1010.40 69 0 --
17:29 - 17/08 27.5 21.3 0 1010.30 69 2.5 NO
17:14 - 17/08 27.4 21.2 0 1010.50 69 2.5 OSO
16:59 - 17/08 27.4 21.2 0 1010.60 69 1.2 O
16:44 - 17/08 27.5 21.3 0 1010.30 69 2.7 O
02:52 - 17/08 23.1 19.0 0 1009.90 78 1.6 SE
02:45 - 17/08 23.1 18.8 0 1010.00 77 2.1 S
02:29 - 17/08 23.3 19.0 0 1010.00 77 3.4 SE
02:15 - 17/08 23.3 19.2 0 1010.00 78 3.4 SSE
01:59 - 17/08 23.1 19.0 0 1010.20 78 2.8 SE
01:45 - 17/08 23.2 19.1 0 1010.10 78 0.4 SE
01:29 - 17/08 23.3 19.2 0 1010.10 78 2.2 SSO
01:15 - 17/08 23.4 19.3 0 1010.20 78 2.2 SSE
00:59 - 17/08 23.5 19.2 0 1010.20 77 1.5 SE
00:45 - 17/08 23.5 19.2 0 1010.00 77 1.4 S
00:29 - 17/08 23.6 19.1 0 1010.20 76 0.3 SE
00:15 - 17/08 23.6 19.1 0 1010.20 76 1.9 S
23:59 - 16/08 23.8 19.1 0 1010.10 75 3.8 SE


   In caso di mancato funzionamento di qualche risorsa, vi preghiamo di segnalarcelo alla pagina Contatti.
© 2018 Osservatorio Meteo OMTeA
Sito di informazione su Meteo, Tempo in atto e Clima in Italia